sensor_id;sensor_type;location;lat;lon;timestamp;pressure;altitude;pressure_sealevel;temperature;humidity
43147;BME280;28752;48.266;7.402;2023-03-01T00:01:20;100145.09;;;-0.34;67.18
43147;BME280;28752;48.266;7.402;2023-03-01T00:03:46;100156.25;;;-0.09;66.90
43147;BME280;28752;48.266;7.402;2023-03-01T00:06:12;100165.44;;;-0.22;67.33
43147;BME280;28752;48.266;7.402;2023-03-01T00:08:38;100156.06;;;-0.26;67.62
43147;BME280;28752;48.266;7.402;2023-03-01T00:11:16;100155.09;;;-0.24;67.63
43147;BME280;28752;48.266;7.402;2023-03-01T00:13:43;100156.06;;;-0.26;67.58
43147;BME280;28752;48.266;7.402;2023-03-01T00:16:12;100156.00;;;-0.25;67.36
43147;BME280;28752;48.266;7.402;2023-03-01T00:18:38;100155.50;;;-0.34;67.80
43147;BME280;28752;48.266;7.402;2023-03-01T00:21:04;100158.19;;;-0.36;67.73
43147;BME280;28752;48.266;7.402;2023-03-01T00:23:31;100154.03;;;-0.42;68.05
43147;BME280;28752;48.266;7.402;2023-03-01T00:25:56;100149.31;;;-0.32;67.61
43147;BME280;28752;48.266;7.402;2023-03-01T00:28:21;100155.56;;;-0.36;67.96
43147;BME280;28752;48.266;7.402;2023-03-01T00:30:47;100142.16;;;-0.49;68.15
43147;BME280;28752;48.266;7.402;2023-03-01T00:33:13;100144.34;;;-0.38;68.10
43147;BME280;28752;48.266;7.402;2023-03-01T00:35:39;100149.63;;;-0.40;68.10
43147;BME280;28752;48.266;7.402;2023-03-01T00:38:04;100140.25;;;-0.44;68.23
43147;BME280;28752;48.266;7.402;2023-03-01T00:40:32;100144.88;;;-0.52;68.57
43147;BME280;28752;48.266;7.402;2023-03-01T00:42:57;100143.22;;;-0.53;68.49
43147;BME280;28752;48.266;7.402;2023-03-01T00:45:23;100142.91;;;-0.45;68.28
43147;BME280;28752;48.266;7.402;2023-03-01T00:47:49;100142.06;;;-0.46;68.42
43147;BME280;28752;48.266;7.402;2023-03-01T00:50:15;100136.00;;;-0.46;68.26
43147;BME280;28752;48.266;7.402;2023-03-01T00:52:41;100136.13;;;-0.49;68.44
43147;BME280;28752;48.266;7.402;2023-03-01T00:55:06;100140.56;;;-0.51;68.49
43147;BME280;28752;48.266;7.402;2023-03-01T00:57:32;100147.19;;;-0.44;68.31
43147;BME280;28752;48.266;7.402;2023-03-01T00:59:58;100134.53;;;-0.54;68.54
43147;BME280;28752;48.266;7.402;2023-03-01T01:02:24;100145.63;;;-0.48;68.48
43147;BME280;28752;48.266;7.402;2023-03-01T01:04:49;100134.19;;;-0.44;68.33
43147;BME280;28752;48.266;7.402;2023-03-01T01:07:16;100122.56;;;-0.58;68.72
43147;BME280;28752;48.266;7.402;2023-03-01T01:09:42;100138.06;;;-0.55;68.72
43147;BME280;28752;48.266;7.402;2023-03-01T01:12:07;100131.16;;;-0.56;68.88
43147;BME280;28752;48.266;7.402;2023-03-01T01:14:33;100125.84;;;-0.52;68.54
43147;BME280;28752;48.266;7.402;2023-03-01T01:16:59;100122.22;;;-0.48;68.64
43147;BME280;28752;48.266;7.402;2023-03-01T01:19:25;100121.53;;;-0.54;68.56
43147;BME280;28752;48.266;7.402;2023-03-01T01:21:51;100115.78;;;-0.62;69.01
43147;BME280;28752;48.266;7.402;2023-03-01T01:24:17;100122.13;;;-0.69;69.26
43147;BME280;28752;48.266;7.402;2023-03-01T01:26:43;100118.03;;;-0.76;69.49
43147;BME280;28752;48.266;7.402;2023-03-01T01:29:09;100114.44;;;-0.72;69.71
43147;BME280;28752;48.266;7.402;2023-03-01T01:31:36;100103.34;;;-0.77;69.67
43147;BME280;28752;48.266;7.402;2023-03-01T01:34:05;100105.25;;;-0.82;70.33
43147;BME280;28752;48.266;7.402;2023-03-01T01:36:33;100097.47;;;-0.82;70.32
43147;BME280;28752;48.266;7.402;2023-03-01T01:38:59;100088.00;;;-0.83;70.19
43147;BME280;28752;48.266;7.402;2023-03-01T01:41:27;100082.44;;;-0.98;70.79
43147;BME280;28752;48.266;7.402;2023-03-01T01:44:13;100092.72;;;-0.95;70.79
43147;BME280;28752;48.266;7.402;2023-03-01T01:46:42;100083.81;;;-0.87;70.27
43147;BME280;28752;48.266;7.402;2023-03-01T01:51:40;100083.06;;;-0.91;70.38
43147;BME280;28752;48.266;7.402;2023-03-01T01:54:14;100090.53;;;-1.05;71.03
43147;BME280;28752;48.266;7.402;2023-03-01T01:56:44;100086.22;;;-1.07;71.18
43147;BME280;28752;48.266;7.402;2023-03-01T01:59:13;100080.84;;;-1.02;70.90
43147;BME280;28752;48.266;7.402;2023-03-01T02:01:38;100086.31;;;-1.10;71.22
43147;BME280;28752;48.266;7.402;2023-03-01T02:04:04;100089.84;;;-1.11;71.27
43147;BME280;28752;48.266;7.402;2023-03-01T02:06:35;100084.59;;;-1.09;71.18
43147;BME280;28752;48.266;7.402;2023-03-01T02:09:06;100079.84;;;-1.21;71.76
43147;BME280;28752;48.266;7.402;2023-03-01T02:11:33;100091.09;;;-1.21;71.92
43147;BME280;28752;48.266;7.402;2023-03-01T02:13:59;100080.75;;;-1.22;72.11
43147;BME280;28752;48.266;7.402;2023-03-01T02:16:26;100083.56;;;-1.29;72.26
43147;BME280;28752;48.266;7.402;2023-03-01T02:18:52;100078.59;;;-1.35;72.45
43147;BME280;28752;48.266;7.402;2023-03-01T02:21:41;100079.38;;;-1.33;72.52
43147;BME280;28752;48.266;7.402;2023-03-01T02:27:09;100082.44;;;-1.21;72.15
43147;BME280;28752;48.266;7.402;2023-03-01T02:29:35;100064.56;;;-1.31;72.39
43147;BME280;28752;48.266;7.402;2023-03-01T02:32:02;100067.09;;;-1.29;72.58
43147;BME280;28752;48.266;7.402;2023-03-01T02:34:30;100064.72;;;-1.35;72.81
43147;BME280;28752;48.266;7.402;2023-03-01T02:37:02;100060.06;;;-1.26;72.43
43147;BME280;28752;48.266;7.402;2023-03-01T02:39:44;100058.41;;;-1.28;72.59
43147;BME280;28752;48.266;7.402;2023-03-01T02:42:15;100054.97;;;-1.29;72.58
43147;BME280;28752;48.266;7.402;2023-03-01T02:44:42;100057.69;;;-1.32;72.85
43147;BME280;28752;48.266;7.402;2023-03-01T02:47:07;100048.47;;;-1.40;73.23
43147;BME280;28752;48.266;7.402;2023-03-01T02:49:34;100041.06;;;-1.28;72.58
43147;BME280;28752;48.266;7.402;2023-03-01T02:52:40;100061.28;;;-1.36;72.81
43147;BME280;28752;48.266;7.402;2023-03-01T02:55:12;100057.91;;;-1.38;73.26
43147;BME280;28752;48.266;7.402;2023-03-01T02:57:41;100062.94;;;-1.33;73.10
43147;BME280;28752;48.266;7.402;2023-03-01T03:00:09;100046.97;;;-1.48;73.27
43147;BME280;28752;48.266;7.402;2023-03-01T03:02:36;100045.88;;;-1.40;72.97
43147;BME280;28752;48.266;7.402;2023-03-01T03:07:34;100052.00;;;-1.43;73.17
43147;BME280;28752;48.266;7.402;2023-03-01T03:10:01;100046.69;;;-1.40;73.13
43147;BME280;28752;48.266;7.402;2023-03-01T03:12:26;100052.81;;;-1.41;73.23
43147;BME280;28752;48.266;7.402;2023-03-01T03:14:52;100046.88;;;-1.45;73.34
43147;BME280;28752;48.266;7.402;2023-03-01T03:17:17;100043.44;;;-1.45;73.58
43147;BME280;28752;48.266;7.402;2023-03-01T03:19:42;100038.13;;;-1.42;73.42
43147;BME280;28752;48.266;7.402;2023-03-01T03:22:13;100038.19;;;-1.44;73.68
43147;BME280;28752;48.266;7.402;2023-03-01T03:24:39;100028.13;;;-1.53;73.74
43147;BME280;28752;48.266;7.402;2023-03-01T03:27:05;100021.34;;;-1.57;74.13
43147;BME280;28752;48.266;7.402;2023-03-01T03:29:30;100025.59;;;-1.54;74.15
43147;BME280;28752;48.266;7.402;2023-03-01T03:31:56;100030.50;;;-1.47;73.83
43147;BME280;28752;48.266;7.402;2023-03-01T03:34:21;100025.25;;;-1.45;73.88
43147;BME280;28752;48.266;7.402;2023-03-01T03:36:47;100032.47;;;-1.53;74.16
43147;BME280;28752;48.266;7.402;2023-03-01T03:39:12;100013.88;;;-1.66;74.43
43147;BME280;28752;48.266;7.402;2023-03-01T03:41:37;100021.44;;;-1.60;74.25
43147;BME280;28752;48.266;7.402;2023-03-01T03:44:03;100022.03;;;-1.52;73.91
43147;BME280;28752;48.266;7.402;2023-03-01T03:46:28;100021.97;;;-1.50;73.78
43147;BME280;28752;48.266;7.402;2023-03-01T03:48:53;100024.63;;;-1.52;73.72
43147;BME280;28752;48.266;7.402;2023-03-01T03:51:19;100015.31;;;-1.57;73.89
43147;BME280;28752;48.266;7.402;2023-03-01T03:53:45;100022.16;;;-1.55;73.96
43147;BME280;28752;48.266;7.402;2023-03-01T03:56:11;100018.22;;;-1.67;74.23
43147;BME280;28752;48.266;7.402;2023-03-01T03:58:36;100027.47;;;-1.59;74.31
43147;BME280;28752;48.266;7.402;2023-03-01T04:01:02;100017.19;;;-1.63;74.45
43147;BME280;28752;48.266;7.402;2023-03-01T04:03:28;100017.31;;;-1.66;74.45
43147;BME280;28752;48.266;7.402;2023-03-01T04:05:54;100012.22;;;-1.69;74.53
43147;BME280;28752;48.266;7.402;2023-03-01T04:08:23;100011.28;;;-1.66;74.79
43147;BME280;28752;48.266;7.402;2023-03-01T04:10:50;100001.84;;;-1.69;74.72
43147;BME280;28752;48.266;7.402;2023-03-01T04:13:19;99997.84;;;-1.77;75.19
43147;BME280;28752;48.266;7.402;2023-03-01T04:15:46;99992.44;;;-1.71;74.72
43147;BME280;28752;48.266;7.402;2023-03-01T04:18:13;99994.31;;;-1.76;75.19
43147;BME280;28752;48.266;7.402;2023-03-01T04:20:38;99997.69;;;-1.73;75.02
43147;BME280;28752;48.266;7.402;2023-03-01T04:23:13;99996.88;;;-1.75;74.84
43147;BME280;28752;48.266;7.402;2023-03-01T04:25:55;99995.59;;;-1.88;75.27
43147;BME280;28752;48.266;7.402;2023-03-01T04:28:33;99997.41;;;-1.90;75.47
43147;BME280;28752;48.266;7.402;2023-03-01T04:31:03;99983.97;;;-2.02;75.63
43147;BME280;28752;48.266;7.402;2023-03-01T04:33:53;99994.59;;;-2.09;76.14
43147;BME280;28752;48.266;7.402;2023-03-01T04:36:21;99990.50;;;-2.17;76.42
43147;BME280;28752;48.266;7.402;2023-03-01T04:38:47;99995.91;;;-2.23;76.82
43147;BME280;28752;48.266;7.402;2023-03-01T04:41:15;99995.34;;;-2.33;77.14
43147;BME280;28752;48.266;7.402;2023-03-01T04:43:40;99997.31;;;-2.39;77.36
43147;BME280;28752;48.266;7.402;2023-03-01T04:46:08;99993.22;;;-2.46;77.73
43147;BME280;28752;48.266;7.402;2023-03-01T04:48:37;99987.09;;;-2.44;77.68
43147;BME280;28752;48.266;7.402;2023-03-01T04:51:03;99988.38;;;-2.57;78.10
43147;BME280;28752;48.266;7.402;2023-03-01T04:53:29;99984.84;;;-2.55;78.19
43147;BME280;28752;48.266;7.402;2023-03-01T04:55:55;99976.09;;;-2.79;78.87
43147;BME280;28752;48.266;7.402;2023-03-01T04:58:26;99992.00;;;-2.63;78.89
43147;BME280;28752;48.266;7.402;2023-03-01T05:00:52;99989.66;;;-2.71;79.21
43147;BME280;28752;48.266;7.402;2023-03-01T05:03:18;99993.22;;;-2.73;79.21
43147;BME280;28752;48.266;7.402;2023-03-01T05:05:46;99997.84;;;-2.84;79.92
43147;BME280;28752;48.266;7.402;2023-03-01T05:08:12;99994.38;;;-2.83;79.91
43147;BME280;28752;48.266;7.402;2023-03-01T05:10:52;99994.28;;;-2.80;80.15
43147;BME280;28752;48.266;7.402;2023-03-01T05:13:19;99987.97;;;-2.72;80.25
43147;BME280;28752;48.266;7.402;2023-03-01T05:15:53;99979.41;;;-2.75;80.02
43147;BME280;28752;48.266;7.402;2023-03-01T05:18:19;99953.16;;;-2.64;79.60
43147;BME280;28752;48.266;7.402;2023-03-01T05:20:44;99986.16;;;-2.41;79.23
43147;BME280;28752;48.266;7.402;2023-03-01T05:23:10;99971.84;;;-2.28;78.65
43147;BME280;28752;48.266;7.402;2023-03-01T05:25:35;99975.25;;;-2.26;78.71
43147;BME280;28752;48.266;7.402;2023-03-01T05:28:06;99977.03;;;-2.28;78.83
43147;BME280;28752;48.266;7.402;2023-03-01T05:30:34;99962.38;;;-2.29;78.84
43147;BME280;28752;48.266;7.402;2023-03-01T05:32:59;99965.41;;;-2.16;78.20
43147;BME280;28752;48.266;7.402;2023-03-01T05:35:25;99971.47;;;-2.17;78.25
43147;BME280;28752;48.266;7.402;2023-03-01T05:37:51;99976.78;;;-2.20;78.38
43147;BME280;28752;48.266;7.402;2023-03-01T05:40:19;99967.22;;;-2.18;78.38
43147;BME280;28752;48.266;7.402;2023-03-01T05:42:47;99968.72;;;-2.11;78.17
43147;BME280;28752;48.266;7.402;2023-03-01T05:45:13;99960.00;;;-2.10;77.95
43147;BME280;28752;48.266;7.402;2023-03-01T05:47:40;99960.88;;;-2.09;77.79
43147;BME280;28752;48.266;7.402;2023-03-01T05:50:12;99970.22;;;-2.05;77.72
43147;BME280;28752;48.266;7.402;2023-03-01T05:52:38;99966.94;;;-2.10;77.86
43147;BME280;28752;48.266;7.402;2023-03-01T05:55:03;99961.72;;;-2.09;77.92
43147;BME280;28752;48.266;7.402;2023-03-01T05:57:29;99961.50;;;-2.03;78.01
43147;BME280;28752;48.266;7.402;2023-03-01T05:59:55;99963.09;;;-1.99;77.53
43147;BME280;28752;48.266;7.402;2023-03-01T06:02:20;99937.72;;;-2.16;77.38
43147;BME280;28752;48.266;7.402;2023-03-01T06:04:45;99956.19;;;-2.00;77.47
43147;BME280;28752;48.266;7.402;2023-03-01T06:07:11;99966.56;;;-2.00;77.43
43147;BME280;28752;48.266;7.402;2023-03-01T06:09:36;99964.59;;;-1.93;77.01
43147;BME280;28752;48.266;7.402;2023-03-01T06:12:01;99964.88;;;-2.01;77.52
43147;BME280;28752;48.266;7.402;2023-03-01T06:14:27;99962.88;;;-1.92;77.14
43147;BME280;28752;48.266;7.402;2023-03-01T06:16:52;99967.41;;;-1.99;77.08
43147;BME280;28752;48.266;7.402;2023-03-01T06:19:17;99977.41;;;-1.88;76.83
43147;BME280;28752;48.266;7.402;2023-03-01T06:21:43;99964.13;;;-2.04;76.88
43147;BME280;28752;48.266;7.402;2023-03-01T06:24:08;99968.72;;;-2.11;77.17
43147;BME280;28752;48.266;7.402;2023-03-01T06:26:34;99964.09;;;-2.03;77.22
43147;BME280;28752;48.266;7.402;2023-03-01T06:28:59;99969.75;;;-2.17;77.39
43147;BME280;28752;48.266;7.402;2023-03-01T06:31:24;99958.72;;;-2.23;77.65
43147;BME280;28752;48.266;7.402;2023-03-01T06:33:50;99972.13;;;-2.10;77.42
43147;BME280;28752;48.266;7.402;2023-03-01T06:36:15;99981.53;;;-2.06;77.60
43147;BME280;28752;48.266;7.402;2023-03-01T06:38:44;99964.19;;;-2.06;77.39
43147;BME280;28752;48.266;7.402;2023-03-01T06:41:09;99980.34;;;-1.98;77.29
43147;BME280;28752;48.266;7.402;2023-03-01T06:43:34;99978.22;;;-1.86;77.42
43147;BME280;28752;48.266;7.402;2023-03-01T06:46:00;99981.22;;;-1.73;77.28
43147;BME280;28752;48.266;7.402;2023-03-01T06:48:28;99979.78;;;-1.57;76.75
43147;BME280;28752;48.266;7.402;2023-03-01T06:50:53;99979.06;;;-1.61;76.61
43147;BME280;28752;48.266;7.402;2023-03-01T06:53:18;99978.78;;;-1.53;76.39
43147;BME280;28752;48.266;7.402;2023-03-01T06:55:44;99972.13;;;-1.36;76.01
43147;BME280;28752;48.266;7.402;2023-03-01T06:58:09;99981.66;;;-1.37;76.04
43147;BME280;28752;48.266;7.402;2023-03-01T07:00:36;99946.06;;;-1.58;76.24
43147;BME280;28752;48.266;7.402;2023-03-01T07:03:01;99985.50;;;-1.23;75.71
43147;BME280;28752;48.266;7.402;2023-03-01T07:05:29;99966.56;;;-1.27;75.86
43147;BME280;28752;48.266;7.402;2023-03-01T07:07:55;99962.69;;;-1.15;75.69
43147;BME280;28752;48.266;7.402;2023-03-01T07:10:21;99955.78;;;-1.16;75.78
43147;BME280;28752;48.266;7.402;2023-03-01T07:12:46;99968.84;;;-0.96;75.01
43147;BME280;28752;48.266;7.402;2023-03-01T07:15:12;99969.69;;;-0.95;74.83
43147;BME280;28752;48.266;7.402;2023-03-01T07:17:37;99958.28;;;-0.91;74.52
43147;BME280;28752;48.266;7.402;2023-03-01T07:20:03;99956.59;;;-0.92;74.46
43147;BME280;28752;48.266;7.402;2023-03-01T07:22:28;99961.47;;;-0.84;74.53
43147;BME280;28752;48.266;7.402;2023-03-01T07:24:54;99942.44;;;-0.85;73.98
43147;BME280;28752;48.266;7.402;2023-03-01T07:27:19;99944.97;;;-0.83;74.09
43147;BME280;28752;48.266;7.402;2023-03-01T07:29:44;99940.91;;;-0.68;73.73
43147;BME280;28752;48.266;7.402;2023-03-01T07:32:10;99944.94;;;-0.61;73.55
43147;BME280;28752;48.266;7.402;2023-03-01T07:34:35;99909.41;;;-0.83;73.29
43147;BME280;28752;48.266;7.402;2023-03-01T07:37:01;99948.81;;;-0.49;73.20
43147;BME280;28752;48.266;7.402;2023-03-01T07:39:26;99952.53;;;-0.34;72.66
43147;BME280;28752;48.266;7.402;2023-03-01T07:41:52;99940.63;;;-0.40;72.82
43147;BME280;28752;48.266;7.402;2023-03-01T07:44:17;99950.25;;;-0.22;72.50
43147;BME280;28752;48.266;7.402;2023-03-01T07:46:43;99942.56;;;-0.25;72.08
43147;BME280;28752;48.266;7.402;2023-03-01T07:49:10;99944.91;;;-0.19;72.14
43147;BME280;28752;48.266;7.402;2023-03-01T07:51:35;99943.75;;;-0.11;71.58
43147;BME280;28752;48.266;7.402;2023-03-01T07:54:01;99943.22;;;0.01;71.55
43147;BME280;28752;48.266;7.402;2023-03-01T07:56:26;99939.31;;;0.11;71.34
43147;BME280;28752;48.266;7.402;2023-03-01T07:58:51;99951.31;;;-0.05;71.15
43147;BME280;28752;48.266;7.402;2023-03-01T08:01:19;99914.91;;;-0.07;70.68
43147;BME280;28752;48.266;7.402;2023-03-01T08:03:44;99932.88;;;0.20;70.29
43147;BME280;28752;48.266;7.402;2023-03-01T08:06:12;99937.28;;;0.18;70.04
43147;BME280;28752;48.266;7.402;2023-03-01T08:08:37;99936.66;;;0.13;70.28
43147;BME280;28752;48.266;7.402;2023-03-01T08:11:05;99953.72;;;0.39;70.17
43147;BME280;28752;48.266;7.402;2023-03-01T08:13:31;99941.91;;;0.32;69.54
43147;BME280;28752;48.266;7.402;2023-03-01T08:16:05;99943.97;;;0.44;69.33
43147;BME280;28752;48.266;7.402;2023-03-01T08:18:31;99936.19;;;0.62;69.14
43147;BME280;28752;48.266;7.402;2023-03-01T08:21:10;99931.78;;;0.64;68.18
43147;BME280;28752;48.266;7.402;2023-03-01T08:23:36;99907.00;;;0.55;68.49
43147;BME280;28752;48.266;7.402;2023-03-01T08:26:13;99935.06;;;0.86;68.13
43147;BME280;28752;48.266;7.402;2023-03-01T08:28:40;99928.31;;;0.82;68.06
43147;BME280;28752;48.266;7.402;2023-03-01T08:31:16;99937.13;;;0.99;68.04
43147;BME280;28752;48.266;7.402;2023-03-01T08:33:42;99927.31;;;1.04;67.47
43147;BME280;28752;48.266;7.402;2023-03-01T08:36:08;99932.84;;;1.15;66.93
43147;BME280;28752;48.266;7.402;2023-03-01T08:38:34;99930.28;;;1.33;66.31
43147;BME280;28752;48.266;7.402;2023-03-01T08:41:02;99931.41;;;1.27;66.61
43147;BME280;28752;48.266;7.402;2023-03-01T08:43:28;99928.56;;;1.32;66.33
43147;BME280;28752;48.266;7.402;2023-03-01T08:45:53;99911.31;;;1.29;66.26
43147;BME280;28752;48.266;7.402;2023-03-01T08:48:20;99923.69;;;1.43;66.23
43147;BME280;28752;48.266;7.402;2023-03-01T08:50:46;99909.94;;;1.57;65.81
43147;BME280;28752;48.266;7.402;2023-03-01T08:53:11;99905.88;;;1.51;66.03
43147;BME280;28752;48.266;7.402;2023-03-01T08:55:36;99905.28;;;1.46;65.94
43147;BME280;28752;48.266;7.402;2023-03-01T08:58:02;99903.81;;;1.40;66.17
43147;BME280;28752;48.266;7.402;2023-03-01T09:00:27;99903.81;;;1.40;65.73
43147;BME280;28752;48.266;7.402;2023-03-01T09:02:53;99902.88;;;1.41;66.35
43147;BME280;28752;48.266;7.402;2023-03-01T09:05:18;99890.59;;;1.44;66.34
43147;BME280;28752;48.266;7.402;2023-03-01T09:07:43;99875.78;;;1.44;65.96
43147;BME280;28752;48.266;7.402;2023-03-01T09:10:09;99906.44;;;1.58;65.68
43147;BME280;28752;48.266;7.402;2023-03-01T09:12:35;99898.34;;;1.80;65.27
43147;BME280;28752;48.266;7.402;2023-03-01T09:15:00;99889.03;;;1.74;65.36
43147;BME280;28752;48.266;7.402;2023-03-01T09:17:25;99888.50;;;1.85;65.12
43147;BME280;28752;48.266;7.402;2023-03-01T09:19:51;99880.78;;;2.00;65.13
43147;BME280;28752;48.266;7.402;2023-03-01T09:22:16;99875.22;;;1.90;64.87
43147;BME280;28752;48.266;7.402;2023-03-01T09:24:41;99888.44;;;2.20;64.16
43147;BME280;28752;48.266;7.402;2023-03-01T09:27:07;99878.69;;;2.06;64.26
43147;BME280;28752;48.266;7.402;2023-03-01T09:29:34;99887.91;;;2.13;63.97
43147;BME280;28752;48.266;7.402;2023-03-01T09:32:00;99880.53;;;2.22;63.74
43147;BME280;28752;48.266;7.402;2023-03-01T09:34:25;99877.16;;;2.36;63.33
43147;BME280;28752;48.266;7.402;2023-03-01T09:36:51;99874.91;;;2.61;63.30
43147;BME280;28752;48.266;7.402;2023-03-01T09:39:17;99869.41;;;2.82;62.79
43147;BME280;28752;48.266;7.402;2023-03-01T09:42:00;99873.41;;;3.03;61.36
43147;BME280;28752;48.266;7.402;2023-03-01T09:44:37;99867.78;;;3.11;61.72
43147;BME280;28752;48.266;7.402;2023-03-01T09:47:04;99862.78;;;3.07;61.02
43147;BME280;28752;48.266;7.402;2023-03-01T09:49:32;99862.69;;;3.38;60.80
43147;BME280;28752;48.266;7.402;2023-03-01T09:52:03;99868.47;;;3.60;60.35
43147;BME280;28752;48.266;7.402;2023-03-01T09:54:33;99859.59;;;3.62;60.06
43147;BME280;28752;48.266;7.402;2023-03-01T09:57:13;99865.56;;;3.64;60.00
43147;BME280;28752;48.266;7.402;2023-03-01T09:59:56;99855.13;;;3.34;60.20
43147;BME280;28752;48.266;7.402;2023-03-01T10:02:49;99847.97;;;3.22;60.62
43147;BME280;28752;48.266;7.402;2023-03-01T10:10:33;99846.16;;;3.83;59.88
43147;BME280;28752;48.266;7.402;2023-03-01T10:13:04;99843.53;;;3.83;60.30
43147;BME280;28752;48.266;7.402;2023-03-01T10:15:41;99847.53;;;3.74;59.93
43147;BME280;28752;48.266;7.402;2023-03-01T10:18:19;99847.59;;;3.58;60.26
43147;BME280;28752;48.266;7.402;2023-03-01T10:20:57;99850.19;;;3.44;60.43
43147;BME280;28752;48.266;7.402;2023-03-01T10:23:25;99843.78;;;3.64;60.67
43147;BME280;28752;48.266;7.402;2023-03-01T10:25:59;99860.09;;;3.83;60.10
43147;BME280;28752;48.266;7.402;2023-03-01T10:28:35;99821.25;;;3.76;60.04
43147;BME280;28752;48.266;7.402;2023-03-01T10:31:04;99853.81;;;4.00;60.41
43147;BME280;28752;48.266;7.402;2023-03-01T10:33:37;99843.81;;;4.07;59.93
43147;BME280;28752;48.266;7.402;2023-03-01T10:36:05;99840.91;;;4.12;59.74
43147;BME280;28752;48.266;7.402;2023-03-01T10:38:46;99822.19;;;4.03;58.80
43147;BME280;28752;48.266;7.402;2023-03-01T10:41:12;99839.50;;;4.06;59.05
43147;BME280;28752;48.266;7.402;2023-03-01T10:43:45;99837.06;;;4.03;59.08
43147;BME280;28752;48.266;7.402;2023-03-01T10:49:15;99815.53;;;4.12;59.23
43147;BME280;28752;48.266;7.402;2023-03-01T10:51:45;99819.84;;;3.99;59.61
43147;BME280;28752;48.266;7.402;2023-03-01T10:56:51;99826.88;;;3.98;59.03
43147;BME280;28752;48.266;7.402;2023-03-01T10:59:33;99815.38;;;3.86;59.49
43147;BME280;28752;48.266;7.402;2023-03-01T11:04:29;99800.88;;;3.95;59.23
43147;BME280;28752;48.266;7.402;2023-03-01T11:07:00;99798.97;;;4.12;58.79
43147;BME280;28752;48.266;7.402;2023-03-01T11:09:25;99782.50;;;4.09;58.46
43147;BME280;28752;48.266;7.402;2023-03-01T11:11:57;99785.09;;;4.24;57.85
43147;BME280;28752;48.266;7.402;2023-03-01T11:14:25;99776.66;;;4.33;58.33
43147;BME280;28752;48.266;7.402;2023-03-01T11:17:17;99782.94;;;4.31;57.79
43147;BME280;28752;48.266;7.402;2023-03-01T11:20:00;99793.41;;;4.45;58.21
43147;BME280;28752;48.266;7.402;2023-03-01T11:22:26;99776.75;;;4.32;58.12
43147;BME280;28752;48.266;7.402;2023-03-01T11:24:54;99770.41;;;4.21;57.86
43147;BME280;28752;48.266;7.402;2023-03-01T11:27:38;99769.91;;;4.29;58.09
43147;BME280;28752;48.266;7.402;2023-03-01T11:35:24;99746.41;;;4.42;57.17
43147;BME280;28752;48.266;7.402;2023-03-01T11:38:24;99743.88;;;4.40;57.39
43147;BME280;28752;48.266;7.402;2023-03-01T11:43:36;99737.66;;;4.41;57.69
43147;BME280;28752;48.266;7.402;2023-03-01T11:51:47;99727.16;;;4.69;56.88
43147;BME280;28752;48.266;7.402;2023-03-01T11:54:23;99724.38;;;4.85;57.22
43147;BME280;28752;48.266;7.402;2023-03-01T11:56:54;99728.06;;;4.95;56.65
43147;BME280;28752;48.266;7.402;2023-03-01T12:02:07;99720.69;;;4.87;56.08
43147;BME280;28752;48.266;7.402;2023-03-01T12:10:05;99720.16;;;4.82;56.46
43147;BME280;28752;48.266;7.402;2023-03-01T12:13:07;99710.50;;;4.83;56.07
43147;BME280;28752;48.266;7.402;2023-03-01T12:15:45;99706.31;;;4.93;55.81
43147;BME280;28752;48.266;7.402;2023-03-01T12:20:46;99700.13;;;4.81;56.44
43147;BME280;28752;48.266;7.402;2023-03-01T12:26:04;99687.53;;;4.99;56.18
43147;BME280;28752;48.266;7.402;2023-03-01T12:28:58;99697.72;;;5.04;55.34
43147;BME280;28752;48.266;7.402;2023-03-01T12:40:33;99670.53;;;5.30;54.45
43147;BME280;28752;48.266;7.402;2023-03-01T12:46:18;99666.56;;;5.38;54.21
43147;BME280;28752;48.266;7.402;2023-03-01T12:51:36;99657.38;;;5.56;53.70
43147;BME280;28752;48.266;7.402;2023-03-01T12:54:16;99647.59;;;5.58;53.67
43147;BME280;28752;48.266;7.402;2023-03-01T12:56:42;99657.06;;;5.61;53.90
43147;BME280;28752;48.266;7.402;2023-03-01T13:02:21;99648.47;;;5.46;53.62
43147;BME280;28752;48.266;7.402;2023-03-01T13:17:59;99630.41;;;5.78;53.44
43147;BME280;28752;48.266;7.402;2023-03-01T13:20:31;99635.16;;;5.73;53.07
43147;BME280;28752;48.266;7.402;2023-03-01T13:23:27;99636.88;;;5.61;52.92
43147;BME280;28752;48.266;7.402;2023-03-01T13:26:20;99625.91;;;5.67;53.47
43147;BME280;28752;48.266;7.402;2023-03-01T13:28:54;99607.38;;;5.58;52.71
43147;BME280;28752;48.266;7.402;2023-03-01T13:33:53;99620.22;;;5.74;52.75
43147;BME280;28752;48.266;7.402;2023-03-01T13:36:46;99604.06;;;5.67;52.81
43147;BME280;28752;48.266;7.402;2023-03-01T13:39:31;99598.09;;;5.65;52.60
43147;BME280;28752;48.266;7.402;2023-03-01T13:41:57;99606.16;;;5.75;52.97
43147;BME280;28752;48.266;7.402;2023-03-01T13:44:35;99595.09;;;5.82;52.94
43147;BME280;28752;48.266;7.402;2023-03-01T13:47:16;99559.91;;;5.72;52.46
43147;BME280;28752;48.266;7.402;2023-03-01T13:49:52;99594.63;;;5.88;52.08
43147;BME280;28752;48.266;7.402;2023-03-01T13:52:45;99586.00;;;5.99;52.29
43147;BME280;28752;48.266;7.402;2023-03-01T13:55:40;99593.25;;;5.96;52.02
43147;BME280;28752;48.266;7.402;2023-03-01T13:58:53;99588.28;;;6.04;52.25
43147;BME280;28752;48.266;7.402;2023-03-01T14:01:26;99592.75;;;6.15;52.14
43147;BME280;28752;48.266;7.402;2023-03-01T14:03:52;99581.47;;;6.01;51.99
43147;BME280;28752;48.266;7.402;2023-03-01T14:06:21;99583.03;;;6.04;51.79
43147;BME280;28752;48.266;7.402;2023-03-01T14:08:49;99575.25;;;6.02;51.57
43147;BME280;28752;48.266;7.402;2023-03-01T14:16:59;99586.75;;;6.01;51.59
43147;BME280;28752;48.266;7.402;2023-03-01T14:19:30;99580.41;;;6.04;51.99
43147;BME280;28752;48.266;7.402;2023-03-01T14:24:40;99567.03;;;6.07;51.95
43147;BME280;28752;48.266;7.402;2023-03-01T14:27:13;99577.06;;;6.02;51.43
43147;BME280;28752;48.266;7.402;2023-03-01T14:29:40;99587.34;;;6.05;51.33
43147;BME280;28752;48.266;7.402;2023-03-01T14:32:19;99582.91;;;6.05;51.91
43147;BME280;28752;48.266;7.402;2023-03-01T14:34:47;99583.78;;;6.06;51.81
43147;BME280;28752;48.266;7.402;2023-03-01T14:37:21;99577.31;;;6.10;52.05
43147;BME280;28752;48.266;7.402;2023-03-01T14:39:48;99573.72;;;6.00;52.16
43147;BME280;28752;48.266;7.402;2023-03-01T14:42:13;99576.00;;;6.04;52.24